Spacecraft Satellite overpass computed based on SGP4 code. Updated every day at 2:25 LT
Spacecraft : Terra    
         GMT                             Satellite      Satellite     Solar          Solar         Scat ang       
  year-mo-da hr:mn:sc    elevation     azimuth    elevation   azimuth    (bk=180)     
  2018-06-25 09:08:33     45.4             98.9          58.6           139.5         152.3
  2018-06-25 10:46:06     27.2            297.4          63.4           185.6         105.1
  2018-06-25 18:41:50     14.2             54.7           0.3           308.6          74.5
  2018-06-25 20:18:52     82.4             74.0         -10.2           328.4        -999.0
  2018-06-25 21:57:13     14.4            272.3         -15.7           350.9        -999.0
Spacecraft : Aqua    
         GMT                             Satellite      Satellite     Solar          Solar         Scat ang       
  year-mo-da hr:mn:sc    elevation     azimuth    elevation   azimuth    (bk=180)     
  2018-06-25 01:20:11     47.9            291.3          -7.6            37.7        -999.0
  2018-06-25 10:52:51     44.3             67.9          63.3           189.0         117.2
  2018-06-25 12:30:46     26.5            266.3          55.2           231.0         141.6
Spacecraft : CALIPSO    
         GMT                             Satellite      Satellite     Solar          Solar         Scat ang       
  year-mo-da hr:mn:sc    elevation     azimuth    elevation   azimuth    (bk=180)     
  2018-06-25 01:21:54     55.3            290.0          -7.4            38.1        -999.0
  2018-06-25 10:54:35     38.7             66.5          63.2           189.9         111.4
  2018-06-25 12:32:24     30.5            264.9          55.0           231.6         146.0
Spacecraft : CloudSat    
         GMT                             Satellite      Satellite     Solar          Solar         Scat ang       
  year-mo-da hr:mn:sc    elevation     azimuth    elevation   azimuth    (bk=180)     
  2018-06-25 00:31:42     47.1             99.4         -11.7            27.2        -999.0
  2018-06-25 02:08:57     25.6            298.0          -2.2            47.6        -999.0
  2018-06-25 10:03:20     14.2             54.9          62.8           163.9          94.3
  2018-06-25 11:40:06     83.7             73.9          60.6           211.5         145.7
  2018-06-25 13:18:10     13.9            272.3          48.7           245.2         138.7
  2018-06-25 23:32:15     14.6             88.2         -15.1            13.6        -999.0
Spacecraft : ISS    
         GMT                             Satellite      Satellite     Solar          Solar         Scat ang       
  year-mo-da hr:mn:sc    elevation     azimuth    elevation   azimuth    (bk=180)     
  2018-06-25 05:58:04     26.5            145.6          30.9            89.5         131.1
  2018-06-25 07:34:18     88.2            346.1          46.1           110.1         135.1
  2018-06-25 09:10:55     64.9              4.3          58.8           140.4         128.0
  2018-06-25 10:47:26     58.9            203.8          63.4           186.3         170.5
  2018-06-25 12:23:24     14.0            221.8          56.1           228.5         137.6